Sierra Vista Municipal Libby Army Air Field
KFHU : now visible

Airfield :











YOU CAN JOIN US ON...

 
LOGIN :

Register | Disclaimer

   EN    FR    IT 

 









Legend :    VFR   Marginal VFR   IFR   Intensive IFR   Very Intensive IFR
Visi :
Ceiling :
>= 8 km
>= 3000ft
5 to 8 km
1000 to 3000 ft
1500m to 5 km
500 to 1000 ft
800 to 1500m
200 to 500 ft
< 800m
< 200 ft
Symbols :   Thunderstorms  Fog  Heavy snow  Heavy precipitations  Wind > 20 kt






- Airport Elevation : 4719 ft
- IATA code : FHU


KFHU - Sierra Vista Municipal Libby Army Air Field

CURRENT METAR :
  • 081958Z AUTO 20004KT 10SM FEW100 SCT150 33/09 A3016 RMK AO2 SLP130 T03260086

EXPIRED METARs :
  • 081941Z AUTO 00000KT 10SM CLR 34/09 A3016 RMK AO2 SLP128
  • 081858Z AUTO 20007KT 10SM CLR 33/09 A3018 RMK AO2 SLP135 T03340088
  • 081837Z AUTO 36004KT 10SM CLR 33/08 A3018 RMK AO2 SLP135
  • 081758Z AUTO 00000KT 10SM CLR 32/08 A3020 RMK AO2 SLP142 T03190082 10328 20202 55003

TAF COR TAF KFHU
Valid from the 08 at 02:00 until the 09 at 08:00 UTC


080241Z 0802/0908 VRB06KT 9999 VCSH FEW100 BKN160 QNH3012INS
BECMG 0820/0821 VRB06KT 9999 VCTS BKN140CB QNH3017INS
TEMPO 0822/0903 9000 -TSRA TX32/0821Z TN18/0812Z LAST NO AMDS AFT 0806 NEXT 1002
KZAB FIR / North America



MET'MAP, your aeronautical weather chart ! - Copyright ORBIFLY December 2007 - Disclaimer

ORBIFLY MET'MAP TEAM :

Programming & Development : Alexandra Zaïnal
Concept & original design : Baudouin d'Aumeries
Assistance for programming : Marc-Olivier Méhu
Technical & hardware support : Manuel Goepfert

Contact : metmap@orbifly.com




SOURCES & CREDITS :

   NOAA       Earth
Advisory